Time;durP1;ratioP1;P1;durP2;ratioP2;P2;SDS_P1;SDS_P2;PMS_P1;PMS_P2;Temp;Humidity;BMP_temperature;BMP_pressure;BME280_temperature;BME280_humidity;BME280_pressure;Samples;Min_cycle;Max_cycle;Signal;HPM_P1;HPM_P2
2022/01/13 00:01:48;;;;;;;17.08;10.05;;;4.40;99.90;;;;;;5133472;27;20023;-66
2022/01/13 00:04:15;;;;;;;16.90;10.88;;;4.40;99.90;;;;;;5132786;27;20031;-71
2022/01/13 00:06:41;;;;;;;15.95;9.50;;;4.40;99.90;;;;;;5131002;27;20036;-65
2022/01/13 00:09:08;;;;;;;15.23;9.95;;;4.40;99.90;;;;;;5133630;27;20030;-65
2022/01/13 00:11:34;;;;;;;15.18;10.35;;;4.40;99.90;;;;;;5133014;27;20089;-64
2022/01/13 00:19:20;;;;;;;14.20;9.65;;;4.40;99.90;;;;;;5133795;27;20019;-64
2022/01/13 00:24:15;;;;;;;14.38;9.93;;;4.50;99.90;;;;;;5133827;27;20447;-72
2022/01/13 00:26:42;;;;;;;17.90;11.25;;;4.40;99.90;;;;;;5133273;28;20168;-65
2022/01/13 00:29:08;;;;;;;14.95;9.73;;;4.50;99.90;;;;;;5134716;27;20110;-65
2022/01/13 00:31:40;;;;;;;17.67;9.77;;;4.50;99.90;;;;;;5134106;27;20098;-64
2022/01/13 00:34:06;;;;;;;;;;;4.50;99.90;;;;;;5134745;27;20044;-66
2022/01/13 00:36:35;;;;;;;14.32;8.98;;;4.40;99.90;;;;;;5131656;28;19999;-66
2022/01/13 00:39:02;;;;;;;16.05;10.25;;;4.40;99.90;;;;;;5133522;27;20024;-67
2022/01/13 00:41:29;;;;;;;18.08;10.32;;;4.40;99.90;;;;;;5131336;28;20062;-66
2022/01/13 00:44:00;;;;;;;18.08;11.18;;;4.50;99.90;;;;;;5132108;28;20053;-65
2022/01/13 00:46:30;;;;;;;18.00;10.43;;;4.40;99.90;;;;;;5132266;27;20472;-65
2022/01/13 00:48:56;;;;;;;13.57;10.38;;;4.40;99.90;;;;;;5132828;27;20030;-66
2022/01/13 00:51:23;;;;;;;16.38;10.70;;;4.50;99.90;;;;;;5132290;28;20031;-66
2022/01/13 00:53:52;;;;;;;16.15;10.38;;;4.50;99.90;;;;;;5131695;28;20054;-65
2022/01/13 00:56:18;;;;;;;15.98;11.25;;;4.50;99.90;;;;;;5132399;27;20027;-67
2022/01/13 00:58:44;;;;;;;15.38;10.82;;;4.50;99.90;;;;;;5133089;27;20024;-65
2022/01/13 01:01:10;;;;;;;14.73;10.35;;;4.50;99.90;;;;;;5131587;28;20475;-64
2022/01/13 01:03:36;;;;;;;19.52;11.20;;;4.50;99.90;;;;;;5130576;28;20051;-65
2022/01/13 01:06:04;;;;;;;22.75;11.85;;;4.40;99.90;;;;;;5132828;27;20027;-64
2022/01/13 01:08:32;;;;;;;17.55;10.85;;;4.50;99.90;;;;;;5132494;27;20070;-66
2022/01/13 01:11:00;;;;;;;16.35;10.20;;;4.60;99.90;;;;;;5133060;27;20027;-64
2022/01/13 01:13:29;;;;;;;16.48;10.55;;;4.50;99.90;;;;;;5132050;27;20362;-65
2022/01/13 01:15:57;;;;;;;13.27;9.40;;;4.50;99.90;;;;;;5132684;27;20361;-65
2022/01/13 01:18:33;;;;;;;14.30;10.48;;;4.50;99.90;;;;;;5133883;27;20023;-64
2022/01/13 01:26:39;;;;;;;14.77;10.05;;;4.50;99.90;;;;;;5136706;27;20456;-66
2022/01/13 01:31:35;;;;;;;15.45;9.73;;;4.60;99.90;;;;;;5136025;27;20035;-64
2022/01/13 01:36:43;;;;;;;14.35;10.13;;;4.50;99.90;;;;;;5135952;27;20478;-65
2022/01/13 01:39:10;;;;;;;16.65;10.40;;;4.50;99.90;;;;;;5134903;27;20027;-64
2022/01/13 01:41:38;;;;;;;15.07;9.98;;;4.50;99.90;;;;;;5135862;27;20372;-66
2022/01/13 01:44:10;;;;;;;15.15;10.13;;;4.50;99.90;;;;;;5134935;27;20027;-65
2022/01/13 01:46:38;;;;;;;15.60;10.27;;;4.50;99.90;;;;;;5134638;27;20107;-64
2022/01/13 01:49:08;;;;;;;19.25;10.52;;;4.40;99.90;;;;;;5136593;27;20027;-65
2022/01/13 01:51:33;;;;;;;15.07;9.60;;;4.50;99.90;;;;;;5134637;27;20035;-65
2022/01/13 01:53:59;;;;;;;12.18;8.55;;;4.50;99.90;;;;;;5136087;27;20491;-67
2022/01/13 01:56:25;;;;;;;13.02;9.15;;;4.40;99.90;;;;;;5133834;27;20023;-67
2022/01/13 01:58:50;;;;;;;12.45;8.40;;;4.40;99.90;;;;;;5134795;27;20033;-65
2022/01/13 02:01:16;;;;;;;11.73;8.50;;;4.40;99.90;;;;;;5135680;27;20034;-66
2022/01/13 02:03:42;;;;;;;10.30;7.53;;;4.40;99.90;;;;;;5134611;27;20379;-69
2022/01/13 02:06:07;;;;;;;12.45;7.97;;;4.30;99.90;;;;;;5135132;27;20030;-67
2022/01/13 02:08:33;;;;;;;16.75;10.00;;;4.40;99.90;;;;;;5135355;27;20361;-65
2022/01/13 02:10:59;;;;;;;14.50;9.65;;;4.50;99.90;;;;;;5135617;27;20350;-67
2022/01/13 02:13:33;;;;;;;13.73;9.27;;;4.50;99.90;;;;;;5134235;27;20117;-65
2022/01/13 02:16:05;;;;;;;14.02;10.23;;;4.40;99.90;;;;;;5136216;27;20119;-64
2022/01/13 02:18:32;;;;;;;15.32;9.18;;;4.40;99.90;;;;;;5134257;27;20068;-66
2022/01/13 02:21:00;;;;;;;14.40;9.48;;;4.50;99.90;;;;;;5135901;27;20043;-66
2022/01/13 02:23:32;;;;;;;14.50;9.13;;;4.40;99.90;;;;;;5134578;27;20047;-66
2022/01/13 02:25:58;;;;;;;14.43;10.60;;;4.40;99.90;;;;;;5135707;27;20023;-64
2022/01/13 02:28:24;;;;;;;19.67;11.25;;;4.60;99.90;;;;;;5135388;27;20096;-65
2022/01/13 02:30:50;;;;;;;16.88;11.75;;;4.50;99.90;;;;;;5134799;27;20619;-67
2022/01/13 02:33:15;;;;;;;18.92;11.90;;;4.10;99.90;;;;;;5120246;27;20059;-64
2022/01/13 02:35:41;;;;;;;19.38;11.23;;;4.30;99.90;;;;;;5115915;28;20100;-64
2022/01/13 02:38:11;;;;;;;16.20;10.75;;;4.20;99.90;;;;;;5115282;28;20045;-65
2022/01/13 02:40:37;;;;;;;27.45;12.90;;;4.20;99.90;;;;;;5114443;28;20032;-65
2022/01/13 02:43:04;;;;;;;17.77;11.90;;;4.10;99.90;;;;;;5113310;28;20031;-65
2022/01/13 02:45:35;;;;;;;18.95;12.65;;;4.20;99.90;;;;;;5113858;28;20077;-64
2022/01/13 02:48:26;;;;;;;17.88;12.40;;;4.30;99.90;;;;;;5113496;28;20027;-67
2022/01/13 02:50:53;;;;;;;19.42;11.65;;;4.20;99.90;;;;;;5113236;28;20042;-64
2022/01/13 02:53:19;;;;;;;19.20;12.32;;;4.30;99.90;;;;;;5114667;28;20023;-65
2022/01/13 02:55:44;;;;;;;19.55;12.27;;;4.40;99.90;;;;;;5113878;28;20080;-65
2022/01/13 02:58:14;;;;;;;18.20;12.10;;;4.40;99.90;;;;;;5114169;28;20024;-66
2022/01/13 03:00:40;;;;;;;20.13;12.95;;;4.40;99.90;;;;;;5112475;28;20516;-66
2022/01/13 03:03:06;;;;;;;19.60;13.27;;;4.30;99.90;;;;;;5114389;28;20027;-66
2022/01/13 03:05:37;;;;;;;19.52;12.32;;;4.40;99.90;;;;;;5113662;28;20117;-65
2022/01/13 03:08:02;;;;;;;21.95;13.32;;;4.40;99.90;;;;;;5114158;28;20106;-66
2022/01/13 03:10:28;;;;;;;20.00;12.50;;;4.40;99.90;;;;;;5113101;28;20043;-67
2022/01/13 03:12:56;;;;;;;19.77;13.38;;;4.40;99.90;;;;;;5113715;28;20038;-65
2022/01/13 03:15:21;;;;;;;21.35;14.30;;;4.30;99.90;;;;;;5114547;28;20095;-67
2022/01/13 03:17:47;;;;;;;21.25;13.95;;;4.30;99.90;;;;;;5112610;28;20122;-68
2022/01/13 03:20:13;;;;;;;24.52;14.23;;;4.30;99.90;;;;;;5114058;28;20075;-66
2022/01/13 03:22:39;;;;;;;19.13;13.13;;;4.30;99.90;;;;;;5113203;28;20108;-67
2022/01/13 03:25:09;;;;;;;23.10;13.27;;;4.30;99.90;;;;;;5112803;28;20114;-67
2022/01/13 03:27:35;;;;;;;26.02;13.98;;;4.20;99.90;;;;;;5113854;28;20034;-65
2022/01/13 03:30:05;;;;;;;18.95;12.43;;;4.10;99.90;;;;;;5114489;28;20418;-64
2022/01/13 03:32:31;;;;;;;22.58;13.23;;;4.20;99.90;;;;;;5114174;28;20407;-67
2022/01/13 03:34:57;;;;;;;21.42;12.45;;;4.20;99.90;;;;;;5114834;28;20059;-67
2022/01/13 03:37:23;;;;;;;24.15;14.40;;;4.30;99.90;;;;;;5115104;28;20038;-66
2022/01/13 03:39:49;;;;;;;22.75;13.68;;;4.10;99.90;;;;;;5113444;28;20059;-67
2022/01/13 03:42:15;;;;;;;18.85;14.00;;;4.10;99.90;;;;;;5112981;28;20055;-66
2022/01/13 03:44:40;;;;;;;23.08;14.70;;;4.20;99.90;;;;;;5112621;28;20032;-66
2022/01/13 03:47:08;;;;;;;18.48;12.45;;;4.20;99.90;;;;;;5113697;28;20035;-66
2022/01/13 03:49:34;;;;;;;16.77;9.90;;;4.30;99.90;;;;;;5112353;28;20070;-66
2022/01/13 03:52:03;;;;;;;15.70;9.70;;;4.40;99.90;;;;;;5113303;28;20051;-68
2022/01/13 03:54:31;;;;;;;20.48;11.95;;;4.40;99.90;;;;;;5113040;28;20131;-66
2022/01/13 03:57:12;;;;;;;16.55;10.90;;;4.40;99.90;;;;;;5112088;28;20027;-69
2022/01/13 04:00:19;;;;;;;17.88;11.23;;;4.40;99.90;;;;;;5111393;28;20468;-69
2022/01/13 04:02:45;;;;;;;18.45;12.20;;;4.40;99.90;;;;;;5055696;28;20365;-65
2022/01/13 04:05:11;;;;;;;15.85;10.75;;;4.40;99.90;;;;;;5113614;28;20022;-65
2022/01/13 04:07:37;;;;;;;17.85;11.45;;;4.40;99.90;;;;;;5112488;28;20024;-65
2022/01/13 04:10:22;;;;;;;18.10;10.80;;;4.20;99.90;;;;;;5113317;28;20032;-65
2022/01/13 04:12:47;;;;;;;16.33;10.52;;;4.30;99.90;;;;;;5112564;28;20132;-65
2022/01/13 04:15:14;;;;;;;17.10;11.45;;;4.30;99.90;;;;;;5113267;28;20124;-66
2022/01/13 04:17:40;;;;;;;11.52;8.60;;;4.20;99.90;;;;;;5112684;28;20462;-66
2022/01/13 04:20:10;;;;;;;15.85;9.25;;;4.30;99.90;;;;;;5113406;28;20144;-68
2022/01/13 04:22:35;;;;;;;17.55;11.13;;;4.30;99.90;;;;;;5112524;28;20051;-67
2022/01/13 04:25:04;;;;;;;14.38;9.02;;;4.30;99.90;;;;;;5111635;28;20416;-66
2022/01/13 04:27:36;;;;;;;13.85;9.07;;;4.40;99.90;;;;;;5112843;28;20077;-69
2022/01/13 04:32:38;;;;;;;15.25;8.95;;;4.20;99.90;;;;;;5112258;28;20024;-66
2022/01/13 04:35:04;;;;;;;15.15;9.88;;;4.20;99.90;;;;;;5111382;28;20024;-66
2022/01/13 04:37:30;;;;;;;17.00;10.75;;;4.20;99.90;;;;;;5112479;28;20481;-70
2022/01/13 04:39:56;;;;;;;18.65;12.00;;;4.20;99.90;;;;;;5111705;28;20053;-68
2022/01/13 04:42:22;;;;;;;16.70;10.07;;;4.10;99.90;;;;;;5112659;28;20054;-65
2022/01/13 04:44:48;;;;;;;15.15;9.57;;;4.00;99.90;;;;;;5112487;28;20369;-66
2022/01/13 04:47:13;;;;;;;18.17;11.57;;;3.90;99.90;;;;;;5111525;28;20090;-65
2022/01/13 04:49:39;;;;;;;18.38;10.63;;;4.00;99.90;;;;;;5112593;28;20042;-66
2022/01/13 04:52:05;;;;;;;20.77;12.20;;;4.20;99.90;;;;;;5113334;28;20035;-73
2022/01/13 04:54:31;;;;;;;17.70;11.85;;;4.20;99.90;;;;;;5115954;28;20488;-65
2022/01/13 04:57:06;;;;;;;16.65;11.45;;;4.00;99.90;;;;;;5116347;28;20477;-65
2022/01/13 04:59:32;;;;;;;20.83;13.75;;;3.90;99.90;;;;;;5116197;28;20027;-66
2022/01/13 05:02:00;;;;;;;15.75;11.05;;;4.00;99.90;;;;;;5116293;28;20035;-64
2022/01/13 05:04:26;;;;;;;17.92;11.75;;;4.20;99.90;;;;;;5116304;28;20031;-64
2022/01/13 05:06:52;;;;;;;19.65;10.63;;;4.00;99.90;;;;;;5116080;28;20056;-64
2022/01/13 05:09:18;;;;;;;19.73;12.27;;;4.00;99.90;;;;;;5116432;28;20027;-71
2022/01/13 05:11:43;;;;;;;21.98;13.07;;;4.00;99.90;;;;;;5114255;28;20024;-64
2022/01/13 05:14:09;;;;;;;20.73;12.55;;;4.00;99.90;;;;;;5116699;28;20107;-65
2022/01/13 05:16:50;;;;;;;24.48;13.75;;;4.00;99.90;;;;;;5114140;28;20031;-65
2022/01/13 05:19:22;;;;;;;23.10;12.95;;;4.00;99.90;;;;;;5100117;28;20027;-64
2022/01/13 05:24:26;;;;;;;23.85;14.65;;;3.90;99.90;;;;;;5116244;28;20027;-65
2022/01/13 05:26:52;;;;;;;21.50;13.82;;;3.90;99.90;;;;;;5115653;28;20031;-65
2022/01/13 05:29:20;;;;;;;19.55;10.98;;;3.90;99.90;;;;;;5115864;28;20028;-65
2022/01/13 05:31:47;;;;;;;21.05;11.82;;;4.00;99.90;;;;;;5115097;28;20031;-65
2022/01/13 05:34:13;;;;;;;16.17;9.98;;;4.00;99.90;;;;;;5115720;28;20023;-66
2022/01/13 05:36:39;;;;;;;18.33;10.13;;;4.00;99.90;;;;;;5113776;28;20118;-66
2022/01/13 05:39:05;;;;;;;13.93;8.77;;;3.90;99.90;;;;;;5114266;28;20488;-64
2022/01/13 05:41:31;;;;;;;18.13;11.05;;;3.80;99.90;;;;;;5115423;28;20027;-66
2022/01/13 05:43:57;;;;;;;16.00;10.07;;;3.70;99.90;;;;;;5115174;28;20023;-66
2022/01/13 05:46:26;;;;;;;23.17;10.90;;;3.80;99.90;;;;;;5116720;28;20020;-69
2022/01/13 05:48:54;;;;;;;13.60;9.50;;;3.80;99.90;;;;;;5116948;28;20031;-66
2022/01/13 05:51:20;;;;;;;18.52;10.68;;;3.80;99.90;;;;;;5115689;28;20104;-64
2022/01/13 05:53:46;;;;;;;18.90;10.27;;;3.90;99.90;;;;;;5117127;28;20048;-65
2022/01/13 05:56:12;;;;;;;15.98;11.05;;;3.90;99.90;;;;;;5117479;28;20030;-65
2022/01/13 05:58:38;;;;;;;16.38;10.05;;;4.00;99.90;;;;;;5115839;28;20035;-65
2022/01/13 06:01:04;;;;;;;15.30;9.25;;;4.00;99.90;;;;;;5114840;28;20027;-65
2022/01/13 06:03:30;;;;;;;16.85;10.10;;;4.00;99.90;;;;;;5115586;28;20050;-66
2022/01/13 06:05:56;;;;;;;15.23;8.35;;;4.00;99.90;;;;;;5115492;28;20054;-67
2022/01/13 06:08:22;;;;;;;12.20;7.82;;;4.00;99.90;;;;;;5116013;28;20038;-66
2022/01/13 06:10:48;;;;;;;13.60;8.77;;;3.90;99.90;;;;;;5114051;28;20122;-66
2022/01/13 06:13:14;;;;;;;12.48;8.30;;;3.80;99.90;;;;;;5114645;28;20118;-67
2022/01/13 06:15:39;;;;;;;13.65;9.45;;;3.80;99.90;;;;;;5116364;28;20028;-66
2022/01/13 06:18:11;;;;;;;14.60;9.55;;;3.90;99.90;;;;;;5116847;28;20414;-66
2022/01/13 06:20:39;;;;;;;17.45;11.40;;;3.90;99.90;;;;;;5117419;28;20037;-65
2022/01/13 06:23:07;;;;;;;16.40;10.98;;;3.90;99.90;;;;;;5121029;28;20056;-67
2022/01/13 06:25:33;;;;;;;17.05;11.05;;;4.00;99.90;;;;;;5119905;27;20509;-65
2022/01/13 06:27:59;;;;;;;17.58;10.80;;;3.90;99.90;;;;;;5114626;28;20035;-66
2022/01/13 06:30:24;;;;;;;16.95;11.35;;;3.80;99.90;;;;;;5115373;28;20491;-66
2022/01/13 06:32:50;;;;;;;15.18;10.57;;;3.80;99.90;;;;;;5112800;28;20019;-66
2022/01/13 06:35:16;;;;;;;15.35;9.60;;;3.80;99.90;;;;;;5113454;28;20020;-65
2022/01/13 06:37:42;;;;;;;18.60;10.18;;;3.80;99.90;;;;;;5112803;28;20571;-64
2022/01/13 06:40:10;;;;;;;17.25;10.80;;;3.90;99.90;;;;;;5114632;28;20326;-67
2022/01/13 06:42:36;;;;;;;17.83;9.38;;;3.90;99.90;;;;;;5113609;28;20055;-66
2022/01/13 06:45:03;;;;;;;18.17;10.35;;;3.70;99.90;;;;;;5114179;28;20028;-64
2022/01/13 06:47:29;;;;;;;13.25;9.23;;;3.70;99.90;;;;;;5113442;28;20122;-67
2022/01/13 06:49:54;;;;;;;16.45;11.20;;;3.70;99.90;;;;;;5112097;28;20118;-66
2022/01/13 06:52:20;;;;;;;15.60;10.30;;;3.50;99.90;;;;;;5113213;28;20052;-66
2022/01/13 06:54:45;;;;;;;17.30;11.32;;;3.70;99.90;;;;;;5112066;28;20087;-65
2022/01/13 06:57:11;;;;;;;17.63;11.20;;;3.70;99.90;;;;;;5114172;28;20030;-66
2022/01/13 06:59:37;;;;;;;16.00;11.15;;;3.60;99.90;;;;;;5113917;28;20469;-65
2022/01/13 07:02:03;;;;;;;21.83;11.95;;;3.70;99.90;;;;;;5113667;28;20024;-67
2022/01/13 07:04:29;;;;;;;18.10;10.27;;;3.70;99.90;;;;;;5112679;28;20023;-65
2022/01/13 07:06:55;;;;;;;18.23;12.10;;;3.50;99.90;;;;;;5112204;28;20024;-69
2022/01/13 07:09:24;;;;;;;18.15;11.07;;;3.60;99.90;;;;;;5114397;28;20053;-67
2022/01/13 07:11:50;;;;;;;19.17;11.95;;;3.50;99.90;;;;;;5111470;28;20105;-64
2022/01/13 07:14:16;;;;;;;19.15;12.52;;;3.40;99.90;;;;;;5095539;28;20035;-65
2022/01/13 07:16:43;;;;;;;21.90;12.57;;;3.30;99.90;;;;;;5113248;28;20544;-65
2022/01/13 07:19:11;;;;;;;21.92;13.77;;;3.10;99.90;;;;;;5112679;28;20052;-64
2022/01/13 07:21:41;;;;;;;22.58;12.82;;;2.80;99.90;;;;;;5112870;28;20076;-63
2022/01/13 07:24:07;;;;;;;23.55;12.40;;;2.80;99.90;;;;;;5113739;28;20385;-66
2022/01/13 07:26:33;;;;;;;26.95;13.40;;;3.00;99.90;;;;;;5112710;28;20479;-65
2022/01/13 07:28:59;;;;;;;16.80;12.05;;;3.10;99.90;;;;;;5113206;28;20110;-65
2022/01/13 07:31:25;;;;;;;19.00;12.07;;;3.30;99.90;;;;;;5112424;28;20032;-65
2022/01/13 07:33:50;;;;;;;20.42;13.05;;;3.20;99.90;;;;;;5111691;28;20144;-66
2022/01/13 07:36:16;;;;;;;22.23;13.52;;;3.20;99.90;;;;;;5112126;28;20303;-64
2022/01/13 07:38:43;;;;;;;22.77;13.68;;;3.40;99.90;;;;;;5112714;28;20062;-65
2022/01/13 07:41:08;;;;;;;20.08;13.95;;;3.30;99.90;;;;;;5111893;28;20432;-66
2022/01/13 07:43:35;;;;;;;21.05;13.55;;;3.50;99.90;;;;;;5112701;28;20088;-66
2022/01/13 07:46:00;;;;;;;22.45;13.55;;;3.50;99.90;;;;;;5112470;28;20460;-67
2022/01/13 07:48:26;;;;;;;23.52;14.27;;;3.50;99.90;;;;;;5112936;28;20047;-66
2022/01/13 07:50:52;;;;;;;22.60;14.90;;;3.60;99.90;;;;;;5112185;28;20472;-65
2022/01/13 07:53:18;;;;;;;21.55;13.70;;;3.40;99.90;;;;;;5111932;28;20031;-66
2022/01/13 07:55:44;;;;;;;21.67;14.65;;;3.50;99.90;;;;;;5112631;28;20503;-66
2022/01/13 07:58:10;;;;;;;22.92;13.65;;;3.50;99.90;;;;;;5112820;28;20101;-66
2022/01/13 08:00:36;;;;;;;21.73;13.38;;;3.60;99.90;;;;;;5113096;28;20100;-64
2022/01/13 08:03:02;;;;;;;24.98;16.00;;;3.60;99.90;;;;;;5111254;28;20401;-65
2022/01/13 08:05:28;;;;;;;24.63;15.55;;;3.60;99.90;;;;;;5112891;28;20027;-69
2022/01/13 08:07:54;;;;;;;23.42;13.35;;;3.70;99.90;;;;;;5111332;28;20030;-66
2022/01/13 08:10:20;;;;;;;22.75;13.95;;;3.70;99.90;;;;;;5112221;28;20027;-66
2022/01/13 08:12:46;;;;;;;20.67;12.88;;;3.70;99.90;;;;;;5111545;28;20035;-67
2022/01/13 08:15:15;;;;;;;19.83;13.48;;;3.60;99.90;;;;;;5115147;28;20444;-65
2022/01/13 08:20:31;;;;;;;20.98;13.13;;;3.50;99.90;;;;;;5114296;28;20069;-66
2022/01/13 08:22:57;;;;;;;21.23;13.90;;;3.60;99.90;;;;;;5113330;28;20130;-66
2022/01/13 08:25:23;;;;;;;19.90;14.77;;;3.40;99.90;;;;;;5112616;28;20507;-68
2022/01/13 08:27:50;;;;;;;21.52;14.90;;;3.40;99.90;;;;;;5112612;28;20043;-67
2022/01/13 08:30:16;;;;;;;23.38;14.32;;;3.40;99.90;;;;;;5115618;28;20048;-66
2022/01/13 08:32:42;;;;;;;20.48;14.20;;;3.60;99.90;;;;;;5115525;28;20027;-66
2022/01/13 08:35:08;;;;;;;17.60;12.02;;;3.60;99.90;;;;;;5114855;28;20024;-66
2022/01/13 08:37:34;;;;;;;17.33;11.77;;;3.60;99.90;;;;;;5115749;28;20034;-66
2022/01/13 08:40:01;;;;;;;19.15;13.48;;;3.50;99.90;;;;;;5115120;28;20027;-65
2022/01/13 08:42:29;;;;;;;21.02;12.95;;;3.50;99.90;;;;;;5120881;28;20061;-65
2022/01/13 08:44:55;;;;;;;21.63;13.13;;;3.40;99.90;;;;;;5121526;28;20066;-66
2022/01/13 08:47:21;;;;;;;20.27;13.25;;;3.40;99.90;;;;;;5117202;28;20020;-66
2022/01/13 08:49:47;;;;;;;16.35;12.27;;;3.50;99.90;;;;;;5114446;27;20031;-68
2022/01/13 08:52:12;;;;;;;23.58;13.60;;;3.60;99.90;;;;;;5117506;27;20027;-66
2022/01/13 08:54:38;;;;;;;17.55;12.85;;;3.70;99.90;;;;;;5118819;27;20031;-66
2022/01/13 08:57:06;;;;;;;22.33;13.07;;;3.70;99.90;;;;;;5123434;27;20023;-71
2022/01/13 08:59:32;;;;;;;24.13;15.07;;;3.80;99.90;;;;;;5121501;27;20476;-71
2022/01/13 09:01:58;;;;;;;20.90;15.35;;;3.70;99.90;;;;;;5119237;27;20024;-66
2022/01/13 09:04:23;;;;;;;22.63;15.25;;;3.70;99.90;;;;;;5116689;28;20055;-64
2022/01/13 09:06:49;;;;;;;23.02;15.80;;;3.70;99.90;;;;;;5116201;28;20385;-67
2022/01/13 09:09:15;;;;;;;23.20;14.32;;;3.70;99.90;;;;;;5116560;28;20454;-66
2022/01/13 09:11:42;;;;;;;29.83;14.30;;;3.70;99.90;;;;;;5117172;27;20115;-67
2022/01/13 09:14:07;;;;;;;21.02;16.27;;;3.60;99.90;;;;;;5130723;27;20043;-66
2022/01/13 09:16:41;;;;;;;22.70;14.90;;;3.70;99.90;;;;;;5118233;28;20024;-67
2022/01/13 09:19:12;;;;;;;28.55;15.75;;;3.70;99.90;;;;;;5117096;28;20032;-66
2022/01/13 09:21:41;;;;;;;22.88;15.60;;;3.80;99.90;;;;;;5117672;28;20027;-61
2022/01/13 09:24:09;;;;;;;20.58;14.95;;;3.70;99.90;;;;;;5114420;28;20032;-67
2022/01/13 09:26:35;;;;;;;24.40;16.30;;;3.70;99.90;;;;;;5113953;27;21139;-68
2022/01/13 09:29:01;;;;;;;23.15;13.93;;;3.80;99.90;;;;;;5119452;28;20049;-66
2022/01/13 09:31:27;;;;;;;21.75;14.30;;;3.80;99.90;;;;;;5121092;27;20027;-66
2022/01/13 09:33:54;;;;;;;22.38;14.90;;;3.60;99.90;;;;;;5122686;28;20027;-66
2022/01/13 09:36:22;;;;;;;25.58;15.02;;;3.50;99.90;;;;;;5118141;28;20027;-65
2022/01/13 09:38:48;;;;;;;21.42;14.63;;;3.50;99.90;;;;;;5122606;28;20456;-70
2022/01/13 09:41:14;;;;;;;22.83;15.45;;;3.30;99.90;;;;;;5122846;27;20035;-65
2022/01/13 09:43:43;;;;;;;26.83;16.33;;;3.20;99.90;;;;;;5120269;28;20024;-67
2022/01/13 09:46:10;;;;;;;26.35;17.55;;;3.40;99.90;;;;;;5123725;27;20035;-65
2022/01/13 09:48:39;;;;;;;24.73;16.30;;;3.50;99.90;;;;;;5117182;28;20023;-66
2022/01/13 09:51:05;;;;;;;19.35;13.50;;;3.50;99.90;;;;;;5127423;28;20545;-66
2022/01/13 09:53:31;;;;;;;37.60;15.70;;;3.50;99.90;;;;;;5114132;28;20048;-63
2022/01/13 09:55:56;;;;;;;25.33;16.08;;;5.10;99.90;;;;;;5129779;28;20465;-64
2022/01/13 09:58:22;;;;;;;27.10;15.02;;;7.20;99.90;;;;;;5131678;28;20365;-63
2022/01/13 10:00:48;;;;;;;18.20;13.48;;;8.10;99.90;;;;;;5123097;28;20075;-66
2022/01/13 10:03:22;;;;;;;18.50;13.25;;;6.20;99.90;;;;;;5124821;27;20540;-66
2022/01/13 10:05:52;;;;;;;17.25;11.98;;;5.40;99.90;;;;;;5129956;28;20072;-68
2022/01/13 10:08:21;;;;;;;17.08;12.38;;;4.70;99.90;;;;;;5117778;28;20468;-68
2022/01/13 10:10:48;;;;;;;18.30;12.68;;;4.40;99.90;;;;;;5114268;28;20036;-68
2022/01/13 10:13:23;;;;;;;16.88;12.20;;;4.20;99.90;;;;;;5123884;28;20042;-68
2022/01/13 10:18:39;;;;;;;25.73;13.52;;;3.70;99.90;;;;;;5120499;28;20434;-66
2022/01/13 10:21:13;;;;;;;18.45;11.70;;;3.60;99.90;;;;;;5124148;28;20110;-67
2022/01/13 10:24:01;;;;;;;18.83;13.27;;;3.60;99.90;;;;;;5078783;27;1121329;-67
2022/01/13 10:26:30;;;;;;;19.17;13.25;;;3.50;99.90;;;;;;5119355;27;20056;-68
2022/01/13 10:28:56;;;;;;;21.33;14.30;;;3.50;99.90;;;;;;5120758;27;20108;-68
2022/01/13 10:31:44;;;;;;;18.45;13.18;;;3.50;99.90;;;;;;5126145;27;20062;-67
2022/01/13 10:34:26;;;;;;;17.75;12.25;;;3.40;99.90;;;;;;5129869;27;20033;-68
2022/01/13 10:37:06;;;;;;;;;;;3.50;99.90;;;;;;5125769;27;20028;-69
2022/01/13 10:39:49;;;;;;;22.27;13.18;;;3.60;99.90;;;;;;5129593;27;20267;-73
2022/01/13 10:45:01;;;;;;;21.42;14.60;;;3.60;99.90;;;;;;5115187;27;20031;-66
2022/01/13 10:47:27;;;;;;;26.02;14.40;;;3.70;99.90;;;;;;5114693;28;20031;-71
2022/01/13 10:49:58;;;;;;;17.63;13.30;;;3.50;99.90;;;;;;5112956;28;20039;-68
2022/01/13 10:52:27;;;;;;;73.13;27.67;;;3.40;99.90;;;;;;5112499;28;20054;-65
2022/01/13 10:55:08;;;;;;;49.33;29.00;;;4.40;99.90;;;;;;5122678;27;20027;-75
2022/01/13 10:57:35;;;;;;;26.83;16.90;;;4.80;99.90;;;;;;5133811;27;20023;-73
2022/01/13 11:00:03;;;;;;;23.55;15.07;;;4.10;99.90;;;;;;5125276;27;20093;-68
2022/01/13 11:02:29;;;;;;;22.05;14.82;;;4.00;99.90;;;;;;5123968;27;20024;-66
2022/01/13 11:05:00;;;;;;;25.15;13.07;;;3.90;99.90;;;;;;5115229;27;20113;-67
2022/01/13 11:07:27;;;;;;;24.95;15.07;;;3.60;99.90;;;;;;5113881;28;20464;-68
2022/01/13 11:10:01;;;;;;;19.88;13.07;;;3.50;99.90;;;;;;5127691;27;20060;-71
2022/01/13 11:12:41;;;;;;;20.38;13.45;;;3.40;99.90;;;;;;5119651;27;20395;-67
2022/01/13 11:15:13;;;;;;;26.27;17.20;;;3.30;99.90;;;;;;5104913;27;20062;-64
2022/01/13 11:17:41;;;;;;;24.58;15.80;;;4.10;99.90;;;;;;5114170;27;20048;-64
2022/01/13 11:20:14;;;;;;;22.40;14.45;;;4.60;99.90;;;;;;5113424;27;20063;-64
2022/01/13 11:22:43;;;;;;;20.17;13.82;;;5.30;99.90;;;;;;5113298;28;20112;-64
2022/01/13 11:25:15;;;;;;;22.95;14.45;;;5.20;99.90;;;;;;5113154;28;20020;-68
2022/01/13 11:27:41;;;;;;;19.85;12.43;;;4.40;99.90;;;;;;5113956;28;20024;-68
2022/01/13 11:30:13;;;;;;;17.75;11.68;;;3.90;99.90;;;;;;5112266;28;20039;-69
2022/01/13 11:32:43;;;;;;;;;;;3.80;99.90;;;;;;5113722;28;20024;-71
2022/01/13 11:35:14;;;;;;;17.33;12.55;;;3.80;99.90;;;;;;5112029;28;20044;-68
2022/01/13 11:37:40;;;;;;;30.50;16.35;;;3.50;99.90;;;;;;5113880;28;20020;-66
2022/01/13 11:40:28;;;;;;;41.58;19.10;;;3.40;99.90;;;;;;5116375;27;20051;-66
2022/01/13 11:42:59;;;;;;;26.17;15.00;;;3.50;99.90;;;;;;5114132;27;20036;-64
2022/01/13 11:45:25;;;;;;;24.50;14.57;;;4.00;99.90;;;;;;5123455;27;20031;-66
2022/01/13 11:48:27;;;;;;;26.13;16.42;;;4.00;99.90;;;;;;5127276;27;20038;-65
2022/01/13 11:51:14;;;;;;;27.63;17.00;;;4.30;99.90;;;;;;5113185;27;20051;-67
2022/01/13 11:53:51;;;;;;;20.38;14.43;;;4.70;99.90;;;;;;5128177;27;20114;-67
2022/01/13 11:56:17;;;;;;;19.17;13.82;;;4.20;99.90;;;;;;5126900;27;20061;-68
2022/01/13 11:58:46;;;;;;;19.92;13.45;;;4.20;99.90;;;;;;5121341;27;20024;-68
2022/01/13 12:01:25;;;;;;;21.30;14.43;;;3.80;99.90;;;;;;5116533;27;20086;-67
2022/01/13 12:04:23;;;;;;;20.50;13.23;;;3.70;99.90;;;;;;5118119;27;20072;-67
2022/01/13 12:06:49;;;;;;;21.00;14.25;;;3.30;99.90;;;;;;5112440;28;20153;-67
2022/01/13 12:09:21;;;;;;;20.73;14.40;;;3.40;99.90;;;;;;5127315;27;20028;-68
2022/01/13 12:11:54;;;;;;;27.40;15.63;;;3.70;99.90;;;;;;5117774;27;20458;-67
2022/01/13 12:14:23;;;;;;;19.55;13.57;;;3.60;99.90;;;;;;5119896;28;20027;-66
2022/01/13 12:17:05;;;;;;;22.15;15.40;;;3.60;99.90;;;;;;5127270;28;20513;-67
2022/01/13 12:19:46;;;;;;;23.67;16.15;;;3.60;99.90;;;;;;5120964;28;20027;-66
2022/01/13 12:22:51;;;;;;;20.13;13.52;;;3.60;99.90;;;;;;5118613;28;20350;-68
2022/01/13 12:25:20;;;;;;;21.70;14.85;;;3.50;99.90;;;;;;5117849;28;20119;-66
2022/01/13 12:27:50;;;;;;;23.63;14.48;;;3.70;99.90;;;;;;5120813;28;20027;-66
2022/01/13 12:30:28;;;;;;;22.90;15.18;;;3.70;99.90;;;;;;5123552;28;20024;-69
2022/01/13 12:33:04;;;;;;;25.17;16.30;;;3.90;99.90;;;;;;5135159;27;20031;-68
2022/01/13 12:35:38;;;;;;;21.48;14.60;;;3.90;99.90;;;;;;5121331;28;20020;-69
2022/01/13 12:38:16;;;;;;;22.30;14.98;;;3.70;99.90;;;;;;5117986;28;20028;-67
2022/01/13 12:41:05;;;;;;;19.52;13.35;;;3.70;99.90;;;;;;5115963;28;20027;-66
2022/01/13 12:46:16;;;;;;;24.48;14.88;;;3.50;99.90;;;;;;5132175;27;20031;-67
2022/01/13 12:48:44;;;;;;;25.33;15.32;;;3.30;99.90;;;;;;5133005;27;20076;-68
2022/01/13 12:51:15;;;;;;;23.38;14.13;;;3.40;99.90;;;;;;5132743;27;20505;-67
2022/01/13 12:53:41;;;;;;;22.15;14.63;;;3.30;99.90;;;;;;5129906;28;20543;-68
2022/01/13 12:56:22;;;;;;;24.65;14.27;;;3.30;99.90;;;;;;5132205;28;20449;-67
2022/01/13 12:58:54;;;;;;;21.70;14.18;;;3.40;99.90;;;;;;5116178;27;20484;-67
2022/01/13 13:01:23;;;;;;;28.92;17.25;;;3.40;99.90;;;;;;5115495;28;20034;-67
2022/01/13 13:04:05;;;;;;;24.15;16.25;;;3.40;99.90;;;;;;5114437;28;20425;-67
2022/01/13 13:06:33;;;;;;;22.08;15.05;;;3.50;99.90;;;;;;5114102;28;20498;-66
2022/01/13 13:09:15;;;;;;;25.98;16.10;;;3.60;99.90;;;;;;5117145;28;20028;-67
2022/01/13 13:11:43;;;;;;;25.23;16.02;;;3.50;99.90;;;;;;5112507;28;20177;-66
2022/01/13 13:14:18;;;;;;;21.35;14.68;;;3.60;99.90;;;;;;5120434;27;20028;-67
2022/01/13 13:16:47;;;;;;;25.98;15.25;;;3.60;99.90;;;;;;5118242;27;20034;-67
2022/01/13 13:19:13;;;;;;;26.83;18.05;;;3.80;99.90;;;;;;5117060;27;20509;-67
2022/01/13 13:21:39;;;;;;;29.17;16.77;;;3.80;99.90;;;;;;5109988;27;20019;-67